Time,TemperatureF,DewpointF,PressureIn,WindDirection,WindDirectionDegrees,WindSpeedMPH,WindSpeedGustMPH,Humidity,HourlyPrecipIn,Conditions,Clouds,dailyrainin,SoftwareType,DateUTC
2013-01-08 00:06:00,34.2,27.0,30.41,ESE,111,0.0,0.0,75,0.00,,,0.00,weatherlink.com 1.10,2013-01-08 05:06:00,
2013-01-08 00:21:00,33.9,27.0,30.41,East,88,0.0,1.0,77,0.00,,,0.00,weatherlink.com 1.10,2013-01-08 05:21:00,
2013-01-08 00:36:00,33.4,27.0,30.41,ENE,74,1.0,1.0,77,0.00,,,0.00,weatherlink.com 1.10,2013-01-08 05:36:00,
2013-01-08 00:51:00,32.8,27.0,30.41,NNE,31,0.0,2.0,78,0.00,,,0.00,weatherlink.com 1.10,2013-01-08 05:51:00,
2013-01-08 01:06:00,32.6,27.0,30.41,NNE,31,0.0,1.0,79,0.00,,,0.00,weatherlink.com 1.10,2013-01-08 06:06:00,
2013-01-08 01:21:00,32.3,26.0,30.42,NNE,31,0.0,0.0,79,0.00,,,0.00,weatherlink.com 1.10,2013-01-08 06:21:00,
2013-01-08 01:36:00,31.8,26.0,30.41,NNE,31,0.0,1.0,80,0.00,,,0.00,weatherlink.com 1.10,2013-01-08 06:36:00,
2013-01-08 01:51:00,31.8,27.0,30.41,NNE,31,0.0,0.0,81,0.00,,,0.00,weatherlink.com 1.10,2013-01-08 06:51:00,
2013-01-08 02:06:00,32.4,27.0,30.41,NNE,31,0.0,1.0,80,0.00,,,0.00,weatherlink.com 1.10,2013-01-08 07:06:00,
2013-01-08 02:21:00,32.5,27.0,30.41,NNE,31,0.0,1.0,80,0.00,,,0.00,weatherlink.com 1.10,2013-01-08 07:21:00,
2013-01-08 02:36:00,32.5,27.0,30.41,NNE,31,0.0,1.0,80,0.00,,,0.00,weatherlink.com 1.10,2013-01-08 07:36:00,
2013-01-08 02:51:00,32.2,27.0,30.41,NNE,31,0.0,1.0,81,0.00,,,0.00,weatherlink.com 1.10,2013-01-08 07:51:00,
2013-01-08 03:06:00,32.0,27.0,30.41,NNE,31,0.0,0.0,82,0.00,,,0.00,weatherlink.com 1.10,2013-01-08 08:06:00,
2013-01-08 03:21:00,32.1,27.0,30.41,NNE,31,0.0,0.0,82,0.00,,,0.00,weatherlink.com 1.10,2013-01-08 08:21:00,
2013-01-08 03:36:00,31.3,26.0,30.41,NNE,31,0.0,1.0,81,0.00,,,0.00,weatherlink.com 1.10,2013-01-08 08:36:00,
2013-01-08 03:51:00,30.1,26.0,30.41,NNE,29,1.0,2.0,84,0.00,,,0.00,weatherlink.com 1.10,2013-01-08 08:51:00,
2013-01-08 04:06:00,29.2,25.0,30.41,NNE,25,1.0,2.0,85,0.00,,,0.00,weatherlink.com 1.10,2013-01-08 09:06:00,
2013-01-08 04:21:00,28.9,25.0,30.40,North,355,0.0,1.0,86,0.00,,,0.00,weatherlink.com 1.10,2013-01-08 09:21:00,
2013-01-08 04:36:00,29.6,26.0,30.39,NNE,14,0.0,2.0,86,0.00,,,0.00,weatherlink.com 1.10,2013-01-08 09:36:00,
2013-01-08 04:51:00,30.1,26.0,30.40,NW,320,0.0,1.0,85,0.00,,,0.00,weatherlink.com 1.10,2013-01-08 09:51:00,
2013-01-08 05:06:00,30.8,27.0,30.40,NW,320,0.0,0.0,84,0.00,,,0.00,weatherlink.com 1.10,2013-01-08 10:06:00,
2013-01-08 05:21:00,31.0,27.0,30.41,NW,320,0.0,1.0,84,0.00,,,0.00,weatherlink.com 1.10,2013-01-08 10:21:00,
2013-01-08 05:36:00,31.4,27.0,30.41,NW,320,0.0,0.0,83,0.00,,,0.00,weatherlink.com 1.10,2013-01-08 10:36:00,
2013-01-08 05:51:00,30.9,26.0,30.41,North,355,0.0,1.0,83,0.00,,,0.00,weatherlink.com 1.10,2013-01-08 10:51:00,
2013-01-08 06:06:00,29.8,25.0,30.41,North,355,0.0,1.0,82,0.00,,,0.00,weatherlink.com 1.10,2013-01-08 11:06:00,
2013-01-08 06:21:00,29.6,25.0,30.41,North,355,0.0,0.0,84,0.00,,,0.00,weatherlink.com 1.10,2013-01-08 11:21:00,
2013-01-08 06:36:00,29.9,26.0,30.40,North,355,0.0,1.0,86,0.00,,,0.00,weatherlink.com 1.10,2013-01-08 11:36:00,
2013-01-08 06:51:00,30.2,26.0,30.41,North,355,0.0,0.0,84,0.00,,,0.00,weatherlink.com 1.10,2013-01-08 11:51:00,
2013-01-08 07:06:00,28.6,24.0,30.41,NW,313,2.0,3.0,84,0.00,,,0.00,weatherlink.com 1.10,2013-01-08 12:06:00,
2013-01-08 07:21:00,27.3,24.0,30.42,NW,309,0.0,1.0,86,0.00,,,0.00,weatherlink.com 1.10,2013-01-08 12:21:00,
2013-01-08 07:36:00,27.1,24.0,30.43,West,280,0.0,1.0,88,0.00,,,0.00,weatherlink.com 1.10,2013-01-08 12:36:00,
2013-01-08 07:51:00,27.9,25.0,30.43,NE,35,0.0,1.0,88,0.00,,,0.00,weatherlink.com 1.10,2013-01-08 12:51:00,
2013-01-08 08:07:00,28.9,26.0,30.45,NE,35,0.0,1.0,87,0.00,,,0.00,weatherlink.com 1.10,2013-01-08 13:07:00,
2013-01-08 08:22:00,29.7,26.0,30.45,NE,35,0.0,0.0,87,0.00,,,0.00,weatherlink.com 1.10,2013-01-08 13:22:00,
2013-01-08 08:37:00,30.9,27.0,30.44,NE,34,0.0,2.0,85,0.00,,,0.00,weatherlink.com 1.10,2013-01-08 13:37:00,
2013-01-08 08:52:00,32.2,28.0,30.44,NNE,26,0.0,2.0,84,0.00,,,0.00,weatherlink.com 1.10,2013-01-08 13:52:00,
2013-01-08 09:07:00,33.9,29.0,30.44,SE,144,0.0,1.0,82,0.00,,,0.00,weatherlink.com 1.10,2013-01-08 14:07:00,
2013-01-08 09:22:00,35.2,30.0,30.45,South,186,1.0,2.0,81,0.00,,,0.00,weatherlink.com 1.10,2013-01-08 14:22:00,
2013-01-08 09:37:00,35.3,28.0,30.46,ESE,121,0.0,2.0,76,0.00,,,0.00,weatherlink.com 1.10,2013-01-08 14:37:00,
2013-01-08 09:52:00,35.3,29.0,30.47,WSW,252,0.0,1.0,79,0.00,,,0.00,weatherlink.com 1.10,2013-01-08 14:52:00,
2013-01-08 10:07:00,36.7,30.0,30.47,SSE,159,1.0,3.0,77,0.00,,,0.00,weatherlink.com 1.10,2013-01-08 15:07:00,
2013-01-08 10:22:00,38.3,31.0,30.46,West,266,0.0,2.0,74,0.00,,,0.00,weatherlink.com 1.10,2013-01-08 15:22:00,
2013-01-08 10:37:00,39.9,32.0,30.47,SSW,213,2.0,2.0,73,0.00,,,0.00,weatherlink.com 1.10,2013-01-08 15:37:00,
2013-01-08 10:52:00,41.5,32.0,30.46,South,172,0.0,3.0,70,0.00,,,0.00,weatherlink.com 1.10,2013-01-08 15:52:00,
2013-01-08 11:07:00,42.8,32.0,30.45,South,186,0.0,2.0,67,0.00,,,0.00,weatherlink.com 1.10,2013-01-08 16:07:00,
2013-01-08 11:22:00,43.5,33.0,30.44,WNW,283,0.0,3.0,66,0.00,,,0.00,weatherlink.com 1.10,2013-01-08 16:22:00,
2013-01-08 11:37:00,44.3,33.0,30.43,SE,136,0.0,4.0,65,0.00,,,0.00,weatherlink.com 1.10,2013-01-08 16:37:00,
2013-01-08 11:52:00,45.2,33.0,30.42,ENE,65,0.0,4.0,63,0.00,,,0.00,weatherlink.com 1.10,2013-01-08 16:52:00,
2013-01-08 12:07:00,45.8,33.0,30.41,NW,317,0.0,4.0,62,0.00,,,0.00,weatherlink.com 1.10,2013-01-08 17:07:00,
2013-01-08 12:22:00,46.9,34.0,30.42,WSW,252,1.0,4.0,61,0.00,,,0.00,weatherlink.com 1.10,2013-01-08 17:22:00,
2013-01-08 12:37:00,47.6,34.0,30.41,WNW,285,0.0,4.0,60,0.00,,,0.00,weatherlink.com 1.10,2013-01-08 17:37:00,
2013-01-08 12:52:00,48.4,34.0,30.40,SW,216,2.0,5.0,59,0.00,,,0.00,weatherlink.com 1.10,2013-01-08 17:52:00,
2013-01-08 13:07:00,48.7,35.0,30.39,ENE,67,0.0,4.0,59,0.00,,,0.00,weatherlink.com 1.10,2013-01-08 18:07:00,
2013-01-08 13:22:00,49.3,35.0,30.38,SSE,162,1.0,4.0,58,0.00,,,0.00,weatherlink.com 1.10,2013-01-08 18:22:00,
2013-01-08 13:37:00,50.1,36.0,30.38,SW,216,1.0,4.0,58,0.00,,,0.00,weatherlink.com 1.10,2013-01-08 18:37:00,
2013-01-08 13:52:00,49.9,36.0,30.37,West,272,3.0,6.0,59,0.00,,,0.00,weatherlink.com 1.10,2013-01-08 18:52:00,
2013-01-08 14:07:00,51.1,37.0,30.37,SSW,209,1.0,5.0,59,0.00,,,0.00,weatherlink.com 1.10,2013-01-08 19:07:00,
2013-01-08 14:23:00,52.1,37.0,30.37,South,169,1.0,7.0,57,0.00,,,0.00,weatherlink.com 1.10,2013-01-08 19:23:00,
2013-01-08 14:38:00,52.3,38.0,30.38,SSW,198,1.0,6.0,59,0.00,,,0.00,weatherlink.com 1.10,2013-01-08 19:38:00,
2013-01-08 14:53:00,51.9,38.0,30.38,South,175,2.0,5.0,60,0.00,,,0.00,weatherlink.com 1.10,2013-01-08 19:53:00,
2013-01-08 15:08:00,51.4,38.0,30.38,South,182,1.0,4.0,61,0.00,,,0.00,weatherlink.com 1.10,2013-01-08 20:08:00,
2013-01-08 15:23:00,51.4,38.0,30.37,West,261,2.0,3.0,61,0.00,,,0.00,weatherlink.com 1.10,2013-01-08 20:23:00,
2013-01-08 15:38:00,51.2,38.0,30.37,West,259,0.0,4.0,62,0.00,,,0.00,weatherlink.com 1.10,2013-01-08 20:38:00,
2013-01-08 15:53:00,51.0,38.0,30.37,South,184,1.0,3.0,62,0.00,,,0.00,weatherlink.com 1.10,2013-01-08 20:53:00,
2013-01-08 16:08:00,50.6,39.0,30.37,South,178,2.0,2.0,64,0.00,,,0.00,weatherlink.com 1.10,2013-01-08 21:08:00,
2013-01-08 16:23:00,50.8,39.0,30.37,ESE,117,3.0,3.0,64,0.00,,,0.00,weatherlink.com 1.10,2013-01-08 21:23:00,
2013-01-08 16:38:00,51.1,39.0,30.38,SSW,202,0.0,2.0,64,0.00,,,0.00,weatherlink.com 1.10,2013-01-08 21:38:00,
2013-01-08 16:53:00,50.8,39.0,30.38,South,169,0.0,2.0,64,0.00,,,0.00,weatherlink.com 1.10,2013-01-08 21:53:00,
2013-01-08 17:08:00,50.4,39.0,30.39,SSE,157,0.0,1.0,65,0.00,,,0.00,weatherlink.com 1.10,2013-01-08 22:08:00,
2013-01-08 17:23:00,49.7,39.0,30.38,SSE,150,0.0,2.0,67,0.00,,,0.00,weatherlink.com 1.10,2013-01-08 22:23:00,
2013-01-08 17:38:00,48.8,39.0,30.39,SSE,156,0.0,1.0,69,0.00,,,0.00,weatherlink.com 1.10,2013-01-08 22:38:00,
2013-01-08 17:53:00,48.2,39.0,30.38,South,190,0.0,2.0,71,0.00,,,0.00,weatherlink.com 1.10,2013-01-08 22:53:00,
2013-01-08 18:08:00,47.5,39.0,30.38,South,190,0.0,0.0,73,0.00,,,0.00,weatherlink.com 1.10,2013-01-08 23:08:00,
2013-01-08 18:23:00,46.9,39.0,30.39,South,190,0.0,0.0,74,0.00,,,0.00,weatherlink.com 1.10,2013-01-08 23:23:00,
2013-01-08 18:38:00,46.4,39.0,30.39,South,190,0.0,0.0,76,0.00,,,0.00,weatherlink.com 1.10,2013-01-08 23:38:00,
2013-01-08 18:53:00,46.2,39.0,30.39,South,190,0.0,0.0,76,0.00,,,0.00,weatherlink.com 1.10,2013-01-08 23:53:00,
2013-01-08 19:08:00,46.1,39.0,30.40,South,173,0.0,0.0,77,0.00,,,0.00,weatherlink.com 1.10,2013-01-09 00:08:00,
2013-01-08 19:23:00,46.3,39.0,30.39,South,175,0.0,1.0,77,0.00,,,0.00,weatherlink.com 1.10,2013-01-09 00:23:00,
2013-01-08 19:38:00,46.1,39.0,30.39,South,178,0.0,1.0,77,0.00,,,0.00,weatherlink.com 1.10,2013-01-09 00:38:00,
2013-01-08 19:53:00,45.7,39.0,30.39,South,171,0.0,2.0,78,0.00,,,0.00,weatherlink.com 1.10,2013-01-09 00:53:00,
2013-01-08 20:08:00,45.5,39.0,30.39,South,171,0.0,0.0,78,0.00,,,0.00,weatherlink.com 1.10,2013-01-09 01:08:00,
2013-01-08 20:23:00,45.5,40.0,30.39,West,262,0.0,1.0,80,0.00,,,0.00,weatherlink.com 1.10,2013-01-09 01:23:00,
2013-01-08 20:38:00,46.0,40.0,30.39,WSW,245,0.0,1.0,80,0.00,,,0.00,weatherlink.com 1.10,2013-01-09 01:38:00,
2013-01-08 20:53:00,46.4,40.0,30.39,South,179,0.0,2.0,79,0.00,,,0.00,weatherlink.com 1.10,2013-01-09 01:53:00,
2013-01-08 21:08:00,46.2,40.0,30.40,SSE,168,0.0,1.0,78,0.00,,,0.00,weatherlink.com 1.10,2013-01-09 02:08:00,
2013-01-08 21:23:00,46.0,40.0,30.40,West,268,0.0,1.0,79,0.00,,,0.00,weatherlink.com 1.10,2013-01-09 02:23:00,
2013-01-08 21:38:00,45.5,40.0,30.40,West,268,0.0,0.0,80,0.00,,,0.00,weatherlink.com 1.10,2013-01-09 02:38:00,
2013-01-08 21:53:00,44.9,39.0,30.39,NW,304,0.0,0.0,81,0.00,,,0.00,weatherlink.com 1.10,2013-01-09 02:53:00,
2013-01-08 22:09:00,44.6,39.0,30.40,North,355,0.0,1.0,82,0.00,,,0.00,weatherlink.com 1.10,2013-01-09 03:09:00,
2013-01-08 22:23:00,44.0,39.0,30.40,North,355,0.0,0.0,83,0.00,,,0.00,weatherlink.com 1.10,2013-01-09 03:23:00,
2013-01-08 22:38:00,43.2,39.0,30.41,NW,325,0.0,1.0,85,0.00,,,0.00,weatherlink.com 1.10,2013-01-09 03:38:00,
2013-01-08 22:53:00,42.5,39.0,30.40,NNW,348,0.0,1.0,86,0.00,,,0.00,weatherlink.com 1.10,2013-01-09 03:53:00,
2013-01-08 23:08:00,42.7,39.0,30.40,NNW,348,0.0,0.0,85,0.00,,,0.00,weatherlink.com 1.10,2013-01-09 04:08:00,
2013-01-08 23:23:00,42.4,39.0,30.41,NNW,348,0.0,0.0,86,0.00,,,0.00,weatherlink.com 1.10,2013-01-09 04:23:00,
2013-01-08 23:38:00,42.2,38.0,30.41,ENE,78,1.0,1.0,86,0.00,,,0.00,weatherlink.com 1.10,2013-01-09 04:38:00,
2013-01-08 23:53:00,41.8,38.0,30.40,ENE,78,0.0,0.0,86,0.00,,,0.00,weatherlink.com 1.10,2013-01-09 04:53:00,